Time;durP1;ratioP1;P1;durP2;ratioP2;P2;SDS_P1;SDS_P2;PMS_P1;PMS_P2;Temp;Humidity;BMP_temperature;BMP_pressure;BME280_temperature;BME280_humidity;BME280_pressure;Samples;Min_cycle;Max_cycle;Signal;HPM_P1;HPM_P2
2021/12/18 00:01:36;;;;;;;24.97;10.27;;;9.60;99.90;;;;;;5099997;28;20371;-79
2021/12/18 00:04:05;;;;;;;21.70;9.37;;;9.60;99.90;;;;;;5108173;28;20234;-78
2021/12/18 00:06:32;;;;;;;22.23;9.90;;;9.60;99.90;;;;;;5105043;28;20210;-78
2021/12/18 00:08:59;;;;;;;23.87;9.87;;;9.60;99.90;;;;;;5089755;28;20593;-78
2021/12/18 00:11:27;;;;;;;22.63;9.20;;;9.70;99.90;;;;;;5108086;28;20226;-78
2021/12/18 00:13:54;;;;;;;24.63;10.20;;;9.70;99.90;;;;;;5094068;28;20264;-79
2021/12/18 00:16:22;;;;;;;28.57;10.33;;;9.70;99.90;;;;;;5111042;28;20491;-78
2021/12/18 00:18:51;;;;;;;25.83;10.37;;;9.70;99.90;;;;;;5085248;28;20242;-78
2021/12/18 00:21:20;;;;;;;20.53;8.20;;;9.70;99.90;;;;;;5102756;28;20314;-77
2021/12/18 00:23:47;;;;;;;22.67;8.30;;;9.70;99.90;;;;;;5108094;28;20210;-79
2021/12/18 00:26:14;;;;;;;24.67;8.60;;;9.60;99.90;;;;;;5099771;28;20218;-78
2021/12/18 00:28:41;;;;;;;20.07;8.07;;;9.60;99.90;;;;;;5084709;28;20210;-79
2021/12/18 00:31:08;;;;;;;20.67;7.53;;;9.60;99.90;;;;;;5099348;28;20215;-78
2021/12/18 00:33:35;;;;;;;18.53;7.60;;;9.60;99.90;;;;;;5100574;28;20211;-78
2021/12/18 00:36:02;;;;;;;19.63;8.00;;;9.60;99.90;;;;;;5096249;28;20707;-78
2021/12/18 00:38:30;;;;;;;25.03;8.93;;;9.60;99.90;;;;;;5102755;28;20204;-78
2021/12/18 00:41:11;;;;;;;18.60;7.63;;;9.60;99.90;;;;;;5084141;28;20579;-77
2021/12/18 00:46:29;;;;;;;17.30;7.03;;;9.50;99.90;;;;;;5096277;28;20195;-76
2021/12/18 00:48:57;;;;;;;17.63;6.67;;;9.60;99.90;;;;;;5098567;28;20298;-79
2021/12/18 00:51:23;;;;;;;17.47;7.47;;;9.60;99.90;;;;;;5099883;28;20222;-78
2021/12/18 00:53:51;;;;;;;15.70;6.83;;;9.50;99.90;;;;;;5100755;28;20223;-78
2021/12/18 00:56:18;;;;;;;17.03;6.67;;;9.50;99.90;;;;;;5079098;28;20214;-77
2021/12/18 00:58:46;;;;;;;17.97;6.30;;;9.50;99.90;;;;;;5083656;28;20215;-79
2021/12/18 01:01:13;;;;;;;17.37;6.23;;;9.50;99.90;;;;;;5098291;28;20644;-78
2021/12/18 01:03:41;;;;;;;16.43;6.93;;;9.50;99.90;;;;;;5099018;28;20619;-79
2021/12/18 01:06:08;;;;;;;16.30;6.90;;;9.50;99.90;;;;;;5085836;28;20623;-78
2021/12/18 01:08:35;;;;;;;18.57;7.30;;;9.50;99.90;;;;;;5098697;28;20305;-77
2021/12/18 01:13:59;;;;;;;17.83;6.80;;;9.50;99.90;;;;;;5104005;28;20206;-77
2021/12/18 01:16:36;;;;;;;19.60;6.70;;;9.50;99.90;;;;;;5102077;28;20219;-78
2021/12/18 01:24:33;;;;;;;16.17;6.10;;;9.50;99.90;;;;;;5103399;28;20311;-78
2021/12/18 01:27:00;;;;;;;16.97;6.37;;;9.50;99.90;;;;;;5105201;28;20308;-78
2021/12/18 01:29:27;;;;;;;19.17;6.30;;;9.50;99.90;;;;;;5092911;28;20618;-79
2021/12/18 01:31:53;;;;;;;17.07;6.20;;;9.50;99.90;;;;;;5110435;28;20208;-77
2021/12/18 01:34:20;;;;;;;17.53;7.00;;;9.50;99.90;;;;;;5101415;28;20674;-79
2021/12/18 01:36:48;;;;;;;17.33;6.27;;;9.50;99.90;;;;;;5104310;28;20261;-78
2021/12/18 01:39:16;;;;;;;15.77;6.23;;;9.50;99.90;;;;;;5102697;28;20287;-77
2021/12/18 01:42:16;;;;;;;16.93;6.20;;;9.50;99.90;;;;;;5100288;28;20234;-78
2021/12/18 01:52:55;;;;;;;17.03;6.90;;;9.40;99.90;;;;;;5099489;28;20447;-78
2021/12/18 01:55:27;;;;;;;17.37;6.53;;;9.40;99.90;;;;;;5094876;28;20293;-78
2021/12/18 01:57:55;;;;;;;19.53;6.77;;;9.50;99.90;;;;;;5060932;28;20583;-78
2021/12/18 02:00:25;;;;;;;19.97;6.47;;;9.50;99.90;;;;;;5080518;28;20238;-78
2021/12/18 02:02:52;;;;;;;19.27;6.97;;;9.40;99.90;;;;;;5082890;28;20246;-79
2021/12/18 02:05:20;;;;;;;15.67;6.40;;;9.40;99.90;;;;;;5082041;28;20223;-78
2021/12/18 02:07:47;;;;;;;23.10;8.10;;;9.40;99.90;;;;;;5079127;28;20216;-77
2021/12/18 02:10:20;;;;;;;23.07;7.10;;;9.40;99.90;;;;;;5083396;28;20601;-77
2021/12/18 02:13:01;;;;;;;24.10;7.53;;;9.40;99.90;;;;;;5078144;28;20195;-79
2021/12/18 02:21:15;;;;;;;19.17;6.73;;;9.40;99.90;;;;;;5078050;28;20302;-78
2021/12/18 02:23:43;;;;;;;19.73;6.33;;;9.40;99.90;;;;;;5082202;28;20310;-78
2021/12/18 02:26:10;;;;;;;21.80;7.00;;;9.40;99.90;;;;;;5077606;28;21148;-78
2021/12/18 02:28:37;;;;;;;19.43;7.10;;;9.40;99.90;;;;;;5078302;28;20300;-77
2021/12/18 02:31:04;;;;;;;20.07;6.57;;;9.40;99.90;;;;;;5076544;28;20208;-78
2021/12/18 02:33:31;;;;;;;22.53;6.97;;;9.40;99.90;;;;;;5086000;28;20222;-78
2021/12/18 02:36:04;;;;;;;17.10;6.60;;;9.40;99.90;;;;;;5081781;28;20239;-77
2021/12/18 02:41:33;;;;;;;16.93;6.37;;;9.30;99.90;;;;;;5079567;28;20346;-77
2021/12/18 02:44:06;;;;;;;15.83;6.43;;;9.30;99.90;;;;;;5080262;28;20218;-78
2021/12/18 02:46:33;;;;;;;17.60;5.87;;;9.20;99.90;;;;;;5077291;28;20578;-78
2021/12/18 02:49:06;;;;;;;19.77;6.00;;;9.20;99.90;;;;;;5077903;28;20246;-78
2021/12/18 02:51:33;;;;;;;16.30;5.77;;;9.20;99.90;;;;;;5076112;28;20243;-78
2021/12/18 02:54:00;;;;;;;14.80;5.77;;;9.10;99.90;;;;;;5081890;28;20215;-78
2021/12/18 02:56:27;;;;;;;13.97;5.00;;;9.10;99.90;;;;;;5077909;28;20327;-78
2021/12/18 02:59:04;;;;;;;12.13;4.53;;;9.10;99.90;;;;;;5091489;28;20312;-77
2021/12/18 03:01:32;;;;;;;12.70;4.33;;;9.10;99.90;;;;;;5097551;28;20282;-78
2021/12/18 03:04:02;;;;;;;10.63;3.97;;;9.00;99.90;;;;;;5096916;28;20224;-78
2021/12/18 03:06:37;;;;;;;8.73;4.03;;;9.00;99.90;;;;;;5078928;28;20216;-79
2021/12/18 03:22:48;;;;;;;11.77;4.23;;;8.90;99.90;;;;;;5098376;28;20705;-78
2021/12/18 03:25:16;;;;;;;10.77;3.13;;;8.80;99.90;;;;;;5099982;28;20572;-77
2021/12/18 03:27:43;;;;;;;9.83;2.97;;;8.80;99.90;;;;;;5083452;28;20206;-78
2021/12/18 03:30:10;;;;;;;7.90;3.23;;;8.80;99.90;;;;;;5099089;28;20281;-78
2021/12/18 03:32:37;;;;;;;10.90;3.40;;;8.70;99.90;;;;;;5097672;28;20243;-79
2021/12/18 03:35:05;;;;;;;8.47;3.20;;;8.70;99.90;;;;;;5103134;28;20555;-78
2021/12/18 03:37:34;;;;;;;8.53;3.23;;;8.70;99.90;;;;;;5100093;28;20717;-78
2021/12/18 03:40:06;;;;;;;8.70;3.10;;;8.70;99.90;;;;;;5097804;28;20303;-78
2021/12/18 03:42:34;;;;;;;13.50;3.47;;;8.60;99.90;;;;;;5097703;28;20236;-77
2021/12/18 03:45:01;;;;;;;14.27;3.60;;;8.60;99.90;;;;;;5093903;28;20308;-77
2021/12/18 03:47:27;;;;;;;10.37;3.40;;;8.60;99.90;;;;;;5099220;28;20300;-77
2021/12/18 03:49:54;;;;;;;11.53;4.20;;;8.60;99.90;;;;;;5103472;28;20219;-77
2021/12/18 03:52:21;;;;;;;13.43;4.23;;;8.70;99.90;;;;;;5086084;28;20304;-79
2021/12/18 03:54:48;;;;;;;15.67;4.23;;;8.60;99.90;;;;;;5094727;28;20280;-78
2021/12/18 03:57:14;;;;;;;10.77;4.30;;;8.60;99.90;;;;;;5097836;28;20321;-78
2021/12/18 03:59:42;;;;;;;9.70;3.50;;;8.60;99.90;;;;;;5101245;28;20690;-78
2021/12/18 04:02:09;;;;;;;15.23;3.63;;;8.70;99.90;;;;;;5084125;28;20243;-77
2021/12/18 04:04:35;;;;;;;12.27;3.73;;;8.60;99.90;;;;;;5099171;28;20221;-77
2021/12/18 04:07:07;;;;;;;12.70;3.30;;;8.60;99.90;;;;;;5082500;28;20211;-77
2021/12/18 04:09:34;;;;;;;13.40;4.00;;;8.70;99.90;;;;;;5097949;28;20249;-77
2021/12/18 04:12:01;;;;;;;10.60;3.80;;;8.70;99.90;;;;;;5102355;28;20568;-77
2021/12/18 04:14:28;;;;;;;12.37;4.00;;;8.70;99.90;;;;;;5074208;28;20279;-78
2021/12/18 04:16:54;;;;;;;8.87;2.70;;;8.70;99.90;;;;;;5099580;28;20222;-77
2021/12/18 04:19:21;;;;;;;10.13;2.90;;;8.70;99.90;;;;;;5101253;28;20268;-78
2021/12/18 04:21:48;;;;;;;7.30;3.13;;;8.70;99.90;;;;;;5075238;28;20299;-78
2021/12/18 04:24:15;;;;;;;7.03;2.77;;;8.70;99.90;;;;;;5086007;28;20214;-76
2021/12/18 04:26:42;;;;;;;7.10;2.63;;;8.70;99.90;;;;;;5095100;28;20627;-78
2021/12/18 04:29:09;;;;;;;10.33;2.90;;;8.60;99.90;;;;;;5097116;28;20701;-78
2021/12/18 04:31:38;;;;;;;11.00;3.03;;;8.60;99.90;;;;;;5101545;28;20208;-78
2021/12/18 04:34:05;;;;;;;5.43;2.50;;;8.50;99.90;;;;;;5098895;28;20724;-77
2021/12/18 04:36:34;;;;;;;5.53;2.20;;;8.50;99.90;;;;;;5082159;28;20209;-78
2021/12/18 04:39:01;;;;;;;7.90;2.73;;;8.50;99.90;;;;;;5107596;28;20290;-79
2021/12/18 04:41:43;;;;;;;7.03;2.20;;;8.50;99.90;;;;;;5080677;28;20564;-77
2021/12/18 04:44:10;;;;;;;6.57;2.47;;;8.50;99.90;;;;;;5099755;28;20234;-77
2021/12/18 04:46:37;;;;;;;6.40;2.17;;;8.50;99.90;;;;;;5112329;28;20264;-77
2021/12/18 04:49:05;;;;;;;10.17;2.70;;;8.50;99.90;;;;;;5103875;28;20323;-76
2021/12/18 04:51:31;;;;;;;11.07;2.87;;;8.50;99.90;;;;;;5106166;28;20202;-78
2021/12/18 04:53:59;;;;;;;7.73;2.90;;;8.50;99.90;;;;;;5101339;28;20208;-78
2021/12/18 04:56:26;;;;;;;7.17;2.30;;;8.40;99.90;;;;;;5102777;28;20243;-79
2021/12/18 04:58:53;;;;;;;8.53;2.60;;;8.40;99.90;;;;;;5100303;28;20239;-78
2021/12/18 05:01:20;;;;;;;4.77;1.90;;;8.40;99.90;;;;;;5105748;28;20212;-78
2021/12/18 05:03:49;;;;;;;5.43;2.07;;;8.40;99.90;;;;;;5104318;28;20249;-77
2021/12/18 05:06:16;;;;;;;6.30;2.13;;;8.40;99.90;;;;;;5081688;28;20220;-78
2021/12/18 05:08:43;;;;;;;5.43;1.87;;;8.40;99.90;;;;;;5101341;28;20295;-77
2021/12/18 05:11:11;;;;;;;5.83;2.20;;;8.40;99.90;;;;;;5085817;28;20286;-77
2021/12/18 05:13:37;;;;;;;7.30;1.93;;;8.30;99.90;;;;;;5100640;28;20223;-78
2021/12/18 05:16:04;;;;;;;3.77;1.90;;;8.30;99.90;;;;;;5099936;28;20207;-78
2021/12/18 05:18:31;;;;;;;3.97;1.70;;;8.30;99.90;;;;;;5104017;28;20199;-77
2021/12/18 05:20:59;;;;;;;3.43;1.53;;;8.20;99.90;;;;;;5095289;28;20235;-78
2021/12/18 05:23:26;;;;;;;4.30;1.60;;;8.20;99.90;;;;;;5104777;28;20241;-77
2021/12/18 05:25:53;;;;;;;4.60;1.83;;;8.20;99.90;;;;;;5086135;28;20577;-78
2021/12/18 05:28:20;;;;;;;3.87;1.57;;;8.20;99.90;;;;;;5095941;28;20224;-78
2021/12/18 05:30:46;;;;;;;5.10;2.10;;;8.10;99.90;;;;;;5105806;28;20195;-77
2021/12/18 05:33:13;;;;;;;6.23;2.43;;;8.10;99.90;;;;;;5100212;28;20206;-78
2021/12/18 05:35:40;;;;;;;4.50;2.10;;;8.10;99.90;;;;;;5099692;28;20227;-77
2021/12/18 05:38:07;;;;;;;4.97;2.00;;;8.10;99.90;;;;;;5095274;28;20715;-77
2021/12/18 05:40:37;;;;;;;4.83;2.10;;;8.00;99.90;;;;;;5103344;28;20290;-78
2021/12/18 05:43:06;;;;;;;4.57;1.80;;;8.00;99.90;;;;;;5094588;28;20235;-77
2021/12/18 05:45:32;;;;;;;7.10;1.70;;;8.00;99.90;;;;;;5102006;28;20892;-77
2021/12/18 05:47:59;;;;;;;9.43;1.63;;;8.00;99.90;;;;;;5100827;28;20558;-78
2021/12/18 05:50:28;;;;;;;4.47;1.50;;;8.00;99.90;;;;;;5117455;28;20263;-77
2021/12/18 05:52:59;;;;;;;2.10;1.10;;;7.90;99.90;;;;;;5100657;28;20200;-76
2021/12/18 05:55:28;;;;;;;3.97;1.23;;;7.90;99.90;;;;;;5100285;28;20217;-77
2021/12/18 05:57:55;;;;;;;2.50;1.20;;;7.80;99.90;;;;;;5106356;28;20240;-77
2021/12/18 06:00:22;;;;;;;4.00;1.80;;;7.80;99.90;;;;;;5103414;28;20987;-76
2021/12/18 06:02:49;;;;;;;3.63;1.63;;;7.90;99.90;;;;;;5091043;28;20225;-77
2021/12/18 06:05:17;;;;;;;4.27;1.60;;;7.90;99.90;;;;;;5094004;28;20262;-76
2021/12/18 06:07:55;;;;;;;2.40;1.30;;;7.80;99.90;;;;;;5087711;28;20547;-77
2021/12/18 06:10:28;;;;;;;4.17;1.63;;;7.70;99.90;;;;;;5099622;28;20207;-78
2021/12/18 06:12:57;;;;;;;4.00;1.63;;;7.70;99.90;;;;;;5099758;28;20210;-78
2021/12/18 06:15:25;;;;;;;3.47;1.57;;;7.70;99.90;;;;;;5081509;28;20257;-78
2021/12/18 06:17:53;;;;;;;4.20;1.83;;;7.60;99.90;;;;;;5105739;28;20329;-77
2021/12/18 06:20:20;;;;;;;2.53;1.47;;;7.60;99.90;;;;;;5100330;28;20219;-77
2021/12/18 06:22:46;;;;;;;3.90;1.70;;;7.60;99.90;;;;;;5102491;28;20323;-78
2021/12/18 06:25:14;;;;;;;2.77;1.60;;;7.60;99.90;;;;;;5098562;28;20302;-76
2021/12/18 06:27:40;;;;;;;3.27;1.63;;;7.60;99.90;;;;;;5095410;28;20214;-78
2021/12/18 06:30:10;;;;;;;2.67;1.80;;;7.60;99.90;;;;;;5084353;28;20610;-77
2021/12/18 06:32:38;;;;;;;3.83;1.47;;;7.60;99.90;;;;;;5079948;28;20361;-77
2021/12/18 06:35:06;;;;;;;2.73;1.50;;;7.50;99.90;;;;;;5099717;28;20217;-77
2021/12/18 06:37:32;;;;;;;4.07;1.77;;;7.40;99.90;;;;;;5101889;28;20258;-78
2021/12/18 06:40:02;;;;;;;3.30;1.40;;;7.40;99.90;;;;;;5098793;28;20227;-79
2021/12/18 06:42:42;;;;;;;3.33;1.87;;;7.40;99.90;;;;;;5098158;28;20303;-76
2021/12/18 06:45:10;;;;;;;2.83;1.50;;;7.30;99.90;;;;;;5104098;28;20202;-76
2021/12/18 06:47:37;;;;;;;3.97;1.50;;;7.30;99.90;;;;;;5098887;28;20278;-80
2021/12/18 06:50:05;;;;;;;2.20;1.60;;;7.30;99.90;;;;;;5103640;28;20223;-80
2021/12/18 06:52:32;;;;;;;2.23;1.50;;;7.30;99.90;;;;;;5100446;28;20217;-78
2021/12/18 06:54:59;;;;;;;3.30;1.50;;;7.30;99.90;;;;;;5093446;28;20210;-78
2021/12/18 06:57:26;;;;;;;2.73;1.10;;;7.30;99.90;;;;;;5096606;28;20676;-79
2021/12/18 06:59:55;;;;;;;3.70;1.13;;;7.20;99.90;;;;;;5083785;28;20204;-78
2021/12/18 07:02:21;;;;;;;2.87;1.23;;;7.20;99.90;;;;;;5098022;28;20218;-78
2021/12/18 07:04:49;;;;;;;2.07;1.10;;;7.20;99.90;;;;;;5101530;28;20611;-78
2021/12/18 07:07:15;;;;;;;2.00;1.20;;;7.20;99.90;;;;;;5093504;28;20322;-78
2021/12/18 07:09:42;;;;;;;3.73;1.37;;;7.20;99.90;;;;;;5103233;28;20282;-77
2021/12/18 07:12:10;;;;;;;4.70;1.70;;;7.20;99.90;;;;;;5096397;28;20203;-78
2021/12/18 07:14:38;;;;;;;3.90;1.53;;;7.20;99.90;;;;;;5102713;28;20670;-78
2021/12/18 07:17:05;;;;;;;3.07;1.37;;;7.20;99.90;;;;;;5101931;28;20197;-78
2021/12/18 07:19:32;;;;;;;2.67;1.50;;;7.20;99.90;;;;;;5101054;28;20533;-78
2021/12/18 07:22:00;;;;;;;4.43;2.00;;;7.10;99.90;;;;;;5103507;28;20297;-78
2021/12/18 07:24:27;;;;;;;7.10;2.00;;;7.10;99.90;;;;;;5088205;28;20261;-77
2021/12/18 07:26:54;;;;;;;5.40;2.00;;;7.10;99.90;;;;;;5094527;28;20377;-78
2021/12/18 07:29:20;;;;;;;4.10;1.50;;;7.00;99.90;;;;;;5100437;28;20203;-78
2021/12/18 07:31:47;;;;;;;3.67;1.47;;;6.90;99.90;;;;;;5103543;28;20300;-78
2021/12/18 07:34:14;;;;;;;4.63;1.63;;;6.90;99.90;;;;;;5098569;28;20254;-77
2021/12/18 07:36:43;;;;;;;4.23;1.60;;;6.80;99.90;;;;;;5103127;28;20222;-78
2021/12/18 07:39:10;;;;;;;2.77;1.53;;;6.90;99.90;;;;;;5099472;28;20198;-78
2021/12/18 07:41:38;;;;;;;4.13;1.90;;;6.90;99.90;;;;;;5098169;28;20736;-76
2021/12/18 07:44:06;;;;;;;7.83;1.83;;;6.90;99.90;;;;;;5103767;28;20226;-78
2021/12/18 07:46:38;;;;;;;2.17;1.40;;;6.90;99.90;;;;;;5085966;28;20201;-78
2021/12/18 07:49:06;;;;;;;5.37;1.70;;;6.90;99.90;;;;;;5096284;28;20239;-78
2021/12/18 07:51:34;;;;;;;4.20;1.47;;;6.90;99.90;;;;;;5096433;28;20243;-75
2021/12/18 07:54:02;;;;;;;3.40;1.50;;;6.90;99.90;;;;;;5096275;28;20748;-79
2021/12/18 07:56:31;;;;;;;4.70;1.53;;;6.90;99.90;;;;;;5104326;28;20258;-79
2021/12/18 07:58:58;;;;;;;4.00;1.73;;;6.90;99.90;;;;;;5104727;28;20262;-79
2021/12/18 08:01:27;;;;;;;3.27;1.60;;;6.90;99.90;;;;;;5104367;28;20242;-79
2021/12/18 08:03:55;;;;;;;7.13;2.73;;;6.90;99.90;;;;;;5100840;28;20690;-79
2021/12/18 08:06:23;;;;;;;8.07;3.07;;;6.90;99.90;;;;;;5098862;28;20334;-79
2021/12/18 08:08:50;;;;;;;6.80;3.40;;;6.90;99.90;;;;;;5087661;28;20295;-79
2021/12/18 08:11:17;;;;;;;5.70;2.50;;;6.90;99.90;;;;;;5102581;28;20202;-79
2021/12/18 08:13:47;;;;;;;6.10;2.23;;;6.90;99.90;;;;;;5105083;28;20579;-78
2021/12/18 08:16:16;;;;;;;4.30;1.80;;;6.90;99.90;;;;;;5105018;28;20602;-78
2021/12/18 08:18:42;;;;;;;6.17;2.10;;;6.90;99.90;;;;;;5102840;28;20199;-78
2021/12/18 08:21:09;;;;;;;5.47;2.10;;;7.00;99.90;;;;;;5097877;28;20218;-78
2021/12/18 08:23:36;;;;;;;6.10;2.47;;;6.90;99.90;;;;;;5104187;28;20316;-77
2021/12/18 08:26:06;;;;;;;6.23;2.40;;;6.90;99.90;;;;;;5105223;28;20284;-79
2021/12/18 08:28:33;;;;;;;5.40;2.20;;;7.00;99.90;;;;;;5085183;28;20199;-78
2021/12/18 08:31:00;;;;;;;6.53;2.90;;;7.00;99.90;;;;;;5104959;28;20207;-78
2021/12/18 08:33:27;;;;;;;10.77;2.80;;;7.00;99.90;;;;;;5098495;28;20293;-77
2021/12/18 08:35:53;;;;;;;6.83;2.50;;;7.00;99.90;;;;;;5103090;28;20218;-77
2021/12/18 08:38:20;;;;;;;6.67;2.90;;;7.00;99.90;;;;;;5104995;28;20275;-77
2021/12/18 08:40:49;;;;;;;7.33;2.50;;;7.00;99.90;;;;;;5101491;28;20302;-77
2021/12/18 08:43:16;;;;;;;6.17;2.43;;;7.00;99.90;;;;;;5102168;28;20682;-78
2021/12/18 08:45:43;;;;;;;4.40;2.23;;;7.10;99.90;;;;;;5103310;28;20230;-79
2021/12/18 08:48:10;;;;;;;5.93;2.53;;;7.10;99.90;;;;;;5100578;28;20774;-79
2021/12/18 08:50:37;;;;;;;5.97;2.77;;;7.10;99.90;;;;;;5103072;28;20224;-78
2021/12/18 08:53:06;;;;;;;4.87;2.10;;;7.10;99.90;;;;;;5103817;28;20213;-77
2021/12/18 08:55:33;;;;;;;4.60;2.20;;;7.10;99.90;;;;;;5103430;28;20201;-78
2021/12/18 08:58:00;;;;;;;4.17;1.70;;;7.20;99.90;;;;;;5103320;28;20632;-80
2021/12/18 09:00:30;;;;;;;4.30;1.93;;;7.10;99.90;;;;;;5101809;28;20211;-78
2021/12/18 09:03:00;;;;;;;9.03;3.67;;;7.10;99.90;;;;;;5097746;28;20231;-78
2021/12/18 09:05:29;;;;;;;7.33;3.40;;;7.10;99.90;;;;;;5105151;28;20233;-79
2021/12/18 09:07:56;;;;;;;6.60;3.00;;;7.10;99.90;;;;;;5102388;28;20205;-79
2021/12/18 09:10:24;;;;;;;3.27;1.87;;;7.10;99.90;;;;;;5104401;28;20282;-78
2021/12/18 09:12:51;;;;;;;3.47;1.70;;;7.20;99.90;;;;;;5100245;28;20245;-79
2021/12/18 09:15:18;;;;;;;3.70;1.80;;;7.20;99.90;;;;;;5104575;28;20213;-78
2021/12/18 09:17:45;;;;;;;4.67;1.90;;;7.30;99.90;;;;;;5096537;28;20215;-78
2021/12/18 09:20:12;;;;;;;4.17;2.07;;;7.30;99.90;;;;;;5103762;28;20233;-78
2021/12/18 09:22:39;;;;;;;2.27;1.53;;;7.30;99.90;;;;;;5102182;28;20210;-79
2021/12/18 09:25:07;;;;;;;3.43;1.73;;;7.30;99.90;;;;;;5085838;28;20209;-79
2021/12/18 09:27:35;;;;;;;3.30;1.73;;;7.30;99.90;;;;;;5099346;28;20235;-78
2021/12/18 09:30:05;;;;;;;4.97;2.00;;;7.30;99.90;;;;;;5100921;28;20198;-79
2021/12/18 09:32:32;;;;;;;5.13;2.47;;;7.30;99.90;;;;;;5091282;28;20286;-80
2021/12/18 09:34:59;;;;;;;4.13;1.90;;;7.30;99.90;;;;;;5104109;28;20229;-78
2021/12/18 09:37:26;;;;;;;3.33;1.77;;;7.30;99.90;;;;;;5082165;28;20295;-78
2021/12/18 09:39:53;;;;;;;3.47;1.80;;;7.40;99.90;;;;;;5099710;28;20219;-78
2021/12/18 09:42:21;;;;;;;5.73;2.80;;;7.40;99.90;;;;;;5103220;28;20284;-78
2021/12/18 09:44:52;;;;;;;5.83;2.80;;;7.50;99.90;;;;;;5109093;28;20317;-78
2021/12/18 09:47:20;;;;;;;7.47;2.63;;;7.60;99.90;;;;;;5099743;28;20208;-78
2021/12/18 09:49:47;;;;;;;6.23;2.80;;;7.60;99.90;;;;;;5097718;28;20246;-78
2021/12/18 09:52:15;;;;;;;5.00;2.90;;;7.60;99.90;;;;;;5107003;28;20282;-79
2021/12/18 09:54:42;;;;;;;6.63;3.07;;;7.60;99.90;;;;;;5081047;28;20711;-80
2021/12/18 09:57:14;;;;;;;6.03;2.80;;;7.70;99.90;;;;;;5101281;28;20234;-78
2021/12/18 09:59:40;;;;;;;4.77;2.43;;;7.70;99.90;;;;;;5099582;28;20294;-79
2021/12/18 10:02:09;;;;;;;4.43;2.30;;;7.70;99.90;;;;;;5104572;28;20277;-78
2021/12/18 10:04:37;;;;;;;4.80;2.30;;;7.70;99.90;;;;;;5070319;28;20235;-78
2021/12/18 10:07:24;;;;;;;5.93;2.87;;;7.70;99.90;;;;;;5097066;28;20235;-79
2021/12/18 10:09:58;;;;;;;6.77;3.50;;;7.70;99.90;;;;;;5107275;28;20235;-78
2021/12/18 10:12:31;;;;;;;3.03;1.83;;;7.80;99.90;;;;;;5108605;28;20538;-79
2021/12/18 10:15:12;;;;;;;5.20;2.77;;;7.80;99.90;;;;;;5101667;28;20303;-79
2021/12/18 10:17:42;;;;;;;5.17;2.83;;;7.90;99.90;;;;;;5099618;28;20236;-78
2021/12/18 10:20:23;;;;;;;2.90;2.00;;;7.90;99.90;;;;;;5100479;28;20302;-79
2021/12/18 10:22:53;;;;;;;2.87;1.93;;;8.00;99.90;;;;;;5100779;28;20234;-79
2021/12/18 10:25:32;;;;;;;2.57;1.77;;;8.00;99.90;;;;;;5097942;28;20223;-79
2021/12/18 10:28:15;;;;;;;2.63;1.87;;;8.00;99.90;;;;;;5104804;28;20680;-79
2021/12/18 10:30:56;;;;;;;2.87;1.80;;;8.10;99.90;;;;;;5100448;28;20204;-78
2021/12/18 10:33:28;;;;;;;2.50;1.80;;;8.10;99.90;;;;;;5085266;28;20232;-78
2021/12/18 10:35:58;;;;;;;2.47;1.50;;;8.00;99.90;;;;;;5079320;28;20226;-78
2021/12/18 10:38:50;;;;;;;3.23;1.93;;;8.00;99.90;;;;;;5101350;28;20240;-78
2021/12/18 10:41:29;;;;;;;2.70;1.93;;;8.10;99.90;;;;;;5101115;28;20238;-79
2021/12/18 10:44:02;;;;;;;7.83;4.23;;;8.20;99.90;;;;;;5084196;28;20311;-80
2021/12/18 10:46:31;;;;;;;13.47;6.77;;;8.30;99.90;;;;;;5096964;28;20636;-80
2021/12/18 10:49:07;;;;;;;18.63;9.73;;;8.30;99.90;;;;;;5100125;28;20214;-79
2021/12/18 10:51:36;;;;;;;21.53;10.50;;;8.40;99.90;;;;;;5102249;28;20250;-79
2021/12/18 10:54:09;;;;;;;12.23;7.53;;;8.40;99.90;;;;;;5096923;28;20257;-79
2021/12/18 10:56:39;;;;;;;10.33;6.33;;;8.40;99.90;;;;;;5084479;28;20776;-78
2021/12/18 10:59:27;;;;;;;7.17;4.07;;;8.50;99.90;;;;;;5086305;28;20676;-80
2021/12/18 11:01:58;;;;;;;5.07;3.67;;;8.50;99.90;;;;;;5076196;28;20311;-78
2021/12/18 11:04:30;;;;;;;8.10;4.67;;;8.60;99.90;;;;;;5076477;28;20852;-78
2021/12/18 11:06:57;;;;;;;10.33;5.70;;;8.60;99.90;;;;;;5077229;28;20234;-79
2021/12/18 11:09:29;;;;;;;7.70;4.70;;;8.70;99.90;;;;;;5083382;28;20270;-78
2021/12/18 11:14:36;;;;;;;4.53;3.13;;;8.70;99.90;;;;;;5083138;28;20290;-79
2021/12/18 11:17:10;;;;;;;2.90;1.80;;;8.80;99.90;;;;;;5080427;28;20264;-79
2021/12/18 11:19:39;;;;;;;4.97;2.27;;;8.80;99.90;;;;;;5089100;28;20767;-78
2021/12/18 11:22:09;;;;;;;6.20;2.83;;;8.90;99.90;;;;;;5084180;28;20199;-79
2021/12/18 11:24:41;;;;;;;3.00;2.30;;;8.90;99.90;;;;;;5083309;28;20235;-79
2021/12/18 11:27:17;;;;;;;5.77;2.83;;;9.00;99.90;;;;;;5084668;28;20245;-79
2021/12/18 11:29:55;;;;;;;5.13;2.70;;;9.00;99.90;;;;;;5087696;28;20254;-77
2021/12/18 11:32:26;;;;;;;4.27;2.20;;;9.10;99.90;;;;;;5086126;28;20299;-79
2021/12/18 11:34:55;;;;;;;3.80;2.20;;;9.10;99.90;;;;;;5084715;28;20241;-80
2021/12/18 11:37:24;;;;;;;4.37;2.27;;;9.10;99.90;;;;;;5082325;28;20222;-80
2021/12/18 11:39:56;;;;;;;3.70;2.03;;;9.20;99.90;;;;;;5073548;28;20200;-78
2021/12/18 11:42:32;;;;;;;2.50;2.10;;;9.30;99.90;;;;;;5077696;28;20718;-79
2021/12/18 11:45:04;;;;;;;4.20;2.07;;;9.30;99.90;;;;;;5082488;28;20232;-79
2021/12/18 11:47:42;;;;;;;3.23;2.00;;;9.40;99.90;;;;;;5087656;28;20242;-78
2021/12/18 11:50:28;;;;;;;2.50;1.80;;;9.40;99.90;;;;;;5089184;28;20218;-77
2021/12/18 11:53:06;;;;;;;3.53;1.93;;;9.40;99.90;;;;;;5090577;28;20219;-78
2021/12/18 11:55:54;;;;;;;5.30;2.33;;;9.40;99.90;;;;;;5089644;28;20192;-79
2021/12/18 11:58:22;;;;;;;3.37;2.17;;;9.40;99.90;;;;;;5080122;28;20278;-79
2021/12/18 12:01:02;;;;;;;2.87;1.53;;;9.50;99.90;;;;;;5086759;28;20210;-79
2021/12/18 12:04:00;;;;;;;3.30;2.30;;;9.50;99.90;;;;;;5085703;28;20210;-78
2021/12/18 12:06:34;;;;;;;2.80;2.00;;;9.40;99.90;;;;;;5078241;28;20211;-79
2021/12/18 12:09:34;;;;;;;2.70;1.63;;;9.40;99.90;;;;;;5080303;28;20207;-80
2021/12/18 12:12:06;;;;;;;4.23;2.30;;;9.40;99.90;;;;;;5077524;28;20256;-80
2021/12/18 12:14:41;;;;;;;4.40;2.20;;;9.40;99.90;;;;;;5083352;28;20729;-79
2021/12/18 12:17:52;;;;;;;2.67;2.10;;;9.50;99.90;;;;;;5075532;28;20705;-81
2021/12/18 12:20:40;;;;;;;4.50;2.30;;;9.40;99.90;;;;;;5075548;28;20238;-80
2021/12/18 12:23:09;;;;;;;3.50;2.13;;;9.50;99.90;;;;;;5083727;28;20326;-80
2021/12/18 12:25:40;;;;;;;4.60;2.03;;;9.40;99.90;;;;;;5078522;28;20239;-80
2021/12/18 12:28:09;;;;;;;4.93;2.53;;;9.50;99.90;;;;;;5083439;28;20212;-80
2021/12/18 12:30:48;;;;;;;4.97;2.47;;;9.40;99.90;;;;;;5073680;28;20208;-80
2021/12/18 12:33:27;;;;;;;3.40;2.30;;;9.40;99.90;;;;;;5081847;28;20307;-81
2021/12/18 12:36:11;;;;;;;4.50;2.67;;;9.50;99.90;;;;;;5077178;28;20245;-81
2021/12/18 12:39:01;;;;;;;5.20;2.23;;;9.40;99.90;;;;;;5086160;28;20219;-78
2021/12/18 12:41:33;;;;;;;4.20;2.43;;;9.50;99.90;;;;;;5073328;28;20252;-79
2021/12/18 12:44:05;;;;;;;6.20;2.80;;;9.50;99.90;;;;;;5083443;28;20234;-81
2021/12/18 12:46:32;;;;;;;4.17;2.40;;;9.50;99.90;;;;;;5084817;28;20218;-81
2021/12/18 12:49:16;;;;;;;5.77;2.47;;;9.50;99.90;;;;;;5080602;28;20208;-80
2021/12/18 12:52:00;;;;;;;4.90;2.23;;;9.40;99.90;;;;;;5084652;28;20208;-81
2021/12/18 12:54:58;;;;;;;4.87;2.57;;;9.50;99.90;;;;;;5084108;28;20668;-81
2021/12/18 12:57:31;;;;;;;3.17;2.20;;;9.50;99.90;;;;;;5045902;28;20224;-80
2021/12/18 12:59:58;;;;;;;5.97;2.20;;;9.40;99.90;;;;;;5086485;28;20250;-80
2021/12/18 13:02:26;;;;;;;5.97;2.67;;;9.40;99.90;;;;;;5083140;28;20548;-82
2021/12/18 13:05:08;;;;;;;3.93;2.13;;;9.40;99.90;;;;;;5083954;28;20234;-81
2021/12/18 13:08:02;;;;;;;5.87;2.37;;;9.40;99.90;;;;;;5087585;28;20208;-79
2021/12/18 13:10:37;;;;;;;3.87;2.27;;;9.40;99.90;;;;;;5079355;28;20206;-80
2021/12/18 13:13:08;;;;;;;3.50;2.13;;;9.50;99.90;;;;;;5082379;28;20246;-80
2021/12/18 13:15:54;;;;;;;2.80;1.90;;;9.50;99.90;;;;;;5081643;28;20633;-81
2021/12/18 13:18:36;;;;;;;4.47;2.40;;;9.50;99.90;;;;;;5084310;28;20869;-81
2021/12/18 13:21:16;;;;;;;3.57;2.10;;;9.40;99.90;;;;;;5082211;28;20247;-81
2021/12/18 13:23:51;;;;;;;2.80;2.10;;;9.40;99.90;;;;;;5079707;28;20210;-80
2021/12/18 13:26:27;;;;;;;4.73;2.10;;;9.30;99.90;;;;;;5079878;28;20204;-79
2021/12/18 13:29:12;;;;;;;4.80;2.33;;;9.40;99.90;;;;;;5082915;28;20337;-80
2021/12/18 13:31:46;;;;;;;4.10;2.10;;;9.30;99.90;;;;;;5087284;28;20205;-79
2021/12/18 13:34:16;;;;;;;3.63;2.40;;;9.40;99.90;;;;;;5082579;28;20294;-79
2021/12/18 13:36:54;;;;;;;3.50;1.97;;;9.30;99.90;;;;;;5087427;28;20211;-81
2021/12/18 13:39:25;;;;;;;3.37;2.10;;;9.30;99.90;;;;;;5080862;28;20199;-80
2021/12/18 13:42:14;;;;;;;4.10;2.33;;;9.30;99.90;;;;;;5078369;28;20215;-79
2021/12/18 13:44:42;;;;;;;5.50;3.13;;;9.20;99.90;;;;;;5081578;28;20794;-80
2021/12/18 13:47:47;;;;;;;4.47;2.67;;;9.20;99.90;;;;;;5078121;28;20212;-80
2021/12/18 13:50:20;;;;;;;4.13;2.50;;;9.20;99.90;;;;;;5079357;28;20250;-79
2021/12/18 13:52:49;;;;;;;4.97;2.43;;;9.20;99.90;;;;;;5085099;28;20254;-80
2021/12/18 13:55:19;;;;;;;3.93;2.70;;;9.30;99.90;;;;;;5077039;28;20543;-80